createdAt,value
2023-03-07T00:02:04.622Z,4.57
2023-03-07T00:04:31.664Z,5.75
2023-03-07T00:06:58.870Z,5.60
2023-03-07T00:09:26.128Z,6.38
2023-03-07T00:11:53.123Z,6.15
2023-03-07T00:14:21.442Z,5.35
2023-03-07T00:16:51.153Z,4.90
2023-03-07T00:19:18.883Z,5.93
2023-03-07T00:21:45.947Z,6.05
2023-03-07T00:24:12.987Z,6.38
2023-03-07T00:26:40.090Z,5.95
2023-03-07T00:29:08.544Z,4.85
2023-03-07T00:31:37.370Z,6.63
2023-03-07T00:34:04.880Z,6.47
2023-03-07T00:36:32.012Z,6.88
2023-03-07T00:38:59.309Z,6.47
2023-03-07T00:41:28.498Z,6.90
2023-03-07T00:43:55.800Z,6.60
2023-03-07T00:46:24.617Z,6.82
2023-03-07T00:48:53.470Z,6.97
2023-03-07T00:51:22.312Z,6.85
2023-03-07T00:53:50.131Z,6.97
2023-03-07T00:56:19.281Z,6.40
2023-03-07T00:58:46.846Z,7.05
2023-03-07T01:01:15.771Z,6.40
2023-03-07T01:03:43.176Z,6.37
2023-03-07T01:06:14.826Z,5.97
2023-03-07T01:08:41.938Z,6.53
2023-03-07T01:11:10.780Z,6.22
2023-03-07T01:13:38.316Z,6.83
2023-03-07T01:16:11.235Z,6.93
2023-03-07T01:18:38.420Z,6.57
2023-03-07T01:21:14.373Z,7.38
2023-03-07T01:23:41.452Z,6.80
2023-03-07T01:26:12.434Z,7.93
2023-03-07T01:28:39.634Z,8.30
2023-03-07T01:31:06.820Z,7.70
2023-03-07T01:33:33.827Z,8.40
2023-03-07T01:36:01.077Z,7.10
2023-03-07T01:38:33.939Z,7.25
2023-03-07T01:41:01.490Z,6.53
2023-03-07T01:43:30.075Z,6.80
2023-03-07T01:46:42.431Z,7.33
2023-03-07T01:49:15.343Z,7.60
2023-03-07T01:51:47.405Z,7.17
2023-03-07T01:54:18.022Z,7.80
2023-03-07T01:56:47.247Z,7.97
2023-03-07T01:59:19.085Z,8.07
2023-03-07T02:01:46.181Z,8.77
2023-03-07T02:04:18.537Z,7.50
2023-03-07T02:06:45.537Z,8.07
2023-03-07T02:09:18.756Z,8.13
2023-03-07T02:11:47.721Z,7.53
2023-03-07T02:14:14.731Z,7.73
2023-03-07T02:16:42.158Z,7.45
2023-03-07T02:19:22.041Z,7.60
2023-03-07T02:21:56.110Z,8.43
2023-03-07T02:24:30.389Z,7.80
2023-03-07T02:26:59.035Z,6.97
2023-03-07T02:29:26.014Z,7.20
2023-03-07T02:31:53.004Z,6.30
2023-03-07T02:34:22.561Z,6.20
2023-03-07T02:36:53.490Z,6.47
2023-03-07T02:39:22.986Z,5.75
2023-03-07T02:41:53.389Z,4.70
2023-03-07T02:44:21.829Z,5.78
2023-03-07T02:46:48.801Z,4.50
2023-03-07T02:49:15.717Z,5.32
2023-03-07T02:51:42.729Z,5.53
2023-03-07T02:54:10.042Z,5.40
2023-03-07T02:56:37.092Z,5.80
2023-03-07T02:59:04.119Z,5.80
2023-03-07T03:01:33.252Z,5.37
2023-03-07T03:04:00.278Z,5.63
2023-03-07T03:06:27.301Z,6.17
2023-03-07T03:08:54.297Z,6.03
2023-03-07T03:11:21.177Z,5.50
2023-03-07T03:13:48.103Z,5.47
2023-03-07T03:16:15.211Z,5.43
2023-03-07T03:18:43.500Z,5.50
2023-03-07T03:21:11.708Z,5.40
2023-03-07T03:23:39.001Z,5.37
2023-03-07T03:26:08.489Z,4.80
2023-03-07T03:28:36.209Z,5.55
2023-03-07T03:31:04.920Z,5.30
2023-03-07T03:33:32.858Z,5.00
2023-03-07T03:36:07.437Z,5.78
2023-03-07T03:38:34.638Z,5.90
2023-03-07T03:41:04.460Z,5.60
2023-03-07T03:43:31.491Z,7.90
2023-03-07T03:45:58.922Z,8.60
2023-03-07T03:48:26.798Z,8.27
2023-03-07T03:51:02.402Z,9.67
2023-03-07T03:53:30.358Z,15.97
2023-03-07T03:56:02.218Z,13.30
2023-03-07T03:58:29.289Z,12.00
2023-03-07T04:00:56.492Z,17.60
2023-03-07T04:03:23.649Z,18.90
2023-03-07T04:05:50.546Z,22.45
2023-03-07T04:08:18.986Z,20.48
2023-03-07T04:10:45.978Z,15.45
2023-03-07T04:13:13.020Z,13.07
2023-03-07T04:15:39.944Z,11.88
2023-03-07T04:18:06.991Z,14.10
2023-03-07T04:20:33.980Z,14.70
2023-03-07T04:23:01.180Z,10.83
2023-03-07T04:25:29.520Z,10.37
2023-03-07T04:27:56.791Z,9.07
2023-03-07T04:30:23.895Z,9.65
2023-03-07T04:32:50.852Z,8.77
2023-03-07T04:35:18.202Z,10.33
2023-03-07T04:37:45.240Z,10.15
2023-03-07T04:40:13.532Z,10.38
2023-03-07T04:42:41.950Z,10.47
2023-03-07T04:45:10.115Z,10.10
2023-03-07T04:47:37.267Z,9.63
2023-03-07T04:50:04.976Z,10.32
2023-03-07T04:52:31.971Z,8.73
2023-03-07T04:54:58.963Z,7.33
2023-03-07T04:57:25.868Z,6.88
2023-03-07T04:59:54.197Z,6.90
2023-03-07T05:02:21.201Z,5.03
2023-03-07T05:04:48.100Z,4.73
2023-03-07T05:07:15.058Z,5.22
2023-03-07T05:09:42.011Z,4.73
2023-03-07T05:12:09.387Z,3.93
2023-03-07T05:14:36.327Z,4.73
2023-03-07T05:17:04.876Z,4.40
2023-03-07T05:19:32.021Z,5.13
2023-03-07T05:21:59.121Z,4.13
2023-03-07T05:24:26.475Z,4.87
2023-03-07T05:26:53.415Z,4.90
2023-03-07T05:29:20.718Z,4.32
2023-03-07T05:31:47.700Z,4.30
2023-03-07T05:34:16.818Z,4.22
2023-03-07T05:36:44.045Z,4.70
2023-03-07T05:39:11.175Z,3.50
2023-03-07T05:41:38.075Z,3.45
2023-03-07T05:44:05.570Z,2.47
2023-03-07T05:46:32.717Z,2.80
2023-03-07T05:48:59.731Z,2.93
2023-03-07T05:51:28.223Z,2.78
2023-03-07T05:53:55.199Z,2.50
2023-03-07T05:56:22.154Z,2.97
2023-03-07T05:58:49.122Z,2.67
2023-03-07T06:01:16.162Z,2.70
2023-03-07T06:03:44.906Z,3.07
2023-03-07T06:06:12.794Z,3.13
2023-03-07T06:08:41.104Z,3.63
2023-03-07T06:11:08.130Z,4.17
2023-03-07T06:13:35.383Z,3.83
2023-03-07T06:16:02.673Z,4.07
2023-03-07T06:18:29.753Z,4.17
2023-03-07T06:20:58.677Z,4.00
2023-03-07T06:23:25.990Z,4.60
2023-03-07T06:25:54.334Z,4.47
2023-03-07T06:28:21.393Z,5.40
2023-03-07T06:30:48.672Z,5.60
2023-03-07T06:33:15.835Z,6.50
2023-03-07T06:35:44.133Z,5.47
2023-03-07T06:38:13.596Z,6.10
2023-03-07T06:40:40.776Z,6.20
2023-03-07T06:43:11.340Z,6.30
2023-03-07T06:45:38.480Z,5.97
2023-03-07T06:48:05.744Z,6.00
2023-03-07T06:50:35.593Z,5.65
2023-03-07T06:53:02.827Z,5.27
2023-03-07T06:55:29.894Z,5.17
2023-03-07T06:57:56.884Z,4.50
2023-03-07T07:00:25.402Z,4.20
2023-03-07T07:02:52.532Z,3.28
2023-03-07T07:05:19.538Z,3.83
2023-03-07T07:07:46.529Z,4.33
2023-03-07T07:10:13.767Z,3.63
2023-03-07T07:12:40.773Z,3.53
2023-03-07T07:15:09.811Z,4.03
2023-03-07T07:17:40.900Z,3.53
2023-03-07T07:20:11.510Z,4.13
2023-03-07T07:22:38.573Z,3.45
2023-03-07T07:25:06.402Z,2.80
2023-03-07T07:27:33.394Z,3.60
2023-03-07T07:30:00.448Z,2.97
2023-03-07T07:32:27.632Z,3.30
2023-03-07T07:34:56.076Z,2.80
2023-03-07T07:37:22.981Z,2.83
2023-03-07T07:39:50.102Z,3.50
2023-03-07T07:42:17.507Z,2.80
2023-03-07T07:44:46.975Z,2.78
2023-03-07T07:47:14.233Z,3.03
2023-03-07T07:49:41.208Z,4.20
2023-03-07T07:52:09.645Z,3.13
2023-03-07T07:54:36.613Z,3.70
2023-03-07T07:57:03.932Z,3.70
2023-03-07T07:59:34.225Z,3.70
2023-03-07T08:02:01.823Z,3.97
2023-03-07T08:04:29.636Z,4.43
2023-03-07T08:06:56.724Z,4.67
2023-03-07T08:09:25.284Z,5.63
2023-03-07T08:11:52.436Z,4.43
2023-03-07T08:14:19.547Z,4.67
2023-03-07T08:16:46.552Z,4.00
2023-03-07T08:19:13.503Z,4.67
2023-03-07T08:21:40.536Z,5.32
2023-03-07T08:24:07.588Z,4.67
2023-03-07T08:26:35.934Z,4.13
2023-03-07T08:29:02.839Z,3.63
2023-03-07T08:31:29.942Z,3.90
2023-03-07T08:33:56.972Z,3.50
2023-03-07T08:36:23.986Z,4.53
2023-03-07T08:38:52.278Z,4.30
2023-03-07T08:41:20.500Z,3.70
2023-03-07T08:43:48.950Z,4.07
2023-03-07T08:46:16.341Z,3.80
2023-03-07T08:48:43.467Z,3.87
2023-03-07T08:51:12.440Z,4.00
2023-03-07T08:53:39.568Z,3.83
2023-03-07T08:56:07.635Z,4.30
2023-03-07T08:58:34.770Z,2.70
2023-03-07T09:01:04.346Z,4.23
2023-03-07T09:03:31.796Z,3.40
2023-03-07T09:05:58.918Z,3.53
2023-03-07T09:08:26.029Z,3.53
2023-03-07T09:10:53.271Z,4.20
2023-03-07T09:13:20.392Z,4.27
2023-03-07T09:15:47.720Z,3.90
2023-03-07T09:18:16.107Z,3.90
2023-03-07T09:20:43.025Z,4.53
2023-03-07T09:23:10.934Z,3.87
2023-03-07T09:25:37.887Z,4.38
2023-03-07T09:28:04.990Z,4.20
2023-03-07T09:30:32.018Z,3.53
2023-03-07T09:32:59.021Z,2.80
2023-03-07T09:35:27.492Z,3.17
2023-03-07T09:37:54.537Z,2.40
2023-03-07T09:40:25.362Z,2.93
2023-03-07T09:43:02.122Z,2.40
2023-03-07T09:45:39.573Z,2.33
2023-03-07T09:48:37.163Z,2.10
2023-03-07T09:51:14.582Z,2.13
2023-03-07T09:53:44.250Z,2.05
2023-03-07T09:56:16.956Z,1.75
2023-03-07T09:58:47.429Z,2.40
2023-03-07T10:01:20.035Z,1.25
2023-03-07T10:03:54.670Z,1.10
2023-03-07T10:06:28.930Z,1.40
2023-03-07T10:08:57.271Z,1.40
2023-03-07T10:11:33.859Z,1.30
2023-03-07T10:14:16.464Z,1.77
2023-03-07T10:16:49.201Z,1.95
2023-03-07T10:19:23.661Z,1.80
2023-03-07T10:22:03.702Z,1.60
2023-03-07T10:24:48.265Z,1.90
2023-03-07T10:27:16.400Z,1.90
2023-03-07T10:29:47.453Z,1.90
2023-03-07T10:32:27.260Z,1.97
2023-03-07T10:35:01.389Z,1.60
2023-03-07T10:37:41.401Z,1.73
2023-03-07T10:40:17.941Z,1.85
2023-03-07T10:42:45.035Z,1.73
2023-03-07T10:45:13.921Z,2.03
2023-03-07T10:47:41.583Z,2.33
2023-03-07T10:50:24.248Z,2.22
2023-03-07T10:52:57.066Z,2.37
2023-03-07T10:55:36.361Z,2.17
2023-03-07T10:58:14.097Z,2.23
2023-03-07T11:00:41.312Z,2.27
2023-03-07T11:03:23.705Z,2.40
2023-03-07T11:05:51.217Z,2.22
2023-03-07T11:08:28.229Z,2.50
2023-03-07T11:10:55.706Z,2.77
2023-03-07T11:13:23.829Z,2.20
2023-03-07T11:15:57.927Z,2.30
2023-03-07T11:18:32.202Z,2.30
2023-03-07T11:20:59.515Z,2.22
2023-03-07T11:23:31.613Z,2.65
2023-03-07T11:26:15.371Z,3.72
2023-03-07T11:28:42.705Z,2.60
2023-03-07T11:31:20.304Z,2.85
2023-03-07T11:33:59.279Z,3.40
2023-03-07T11:36:31.088Z,3.10
2023-03-07T11:39:06.936Z,2.55
2023-03-07T11:41:41.476Z,3.10
2023-03-07T11:44:31.086Z,2.92
2023-03-07T11:47:32.090Z,3.03
2023-03-07T11:50:18.975Z,2.95
2023-03-07T11:53:10.708Z,4.35
2023-03-07T11:55:45.169Z,2.58
2023-03-07T11:58:38.875Z,3.55
2023-03-07T12:01:17.024Z,3.30
2023-03-07T12:04:01.345Z,2.67
2023-03-07T12:06:35.803Z,3.50
2023-03-07T12:09:33.918Z,3.90
2023-03-07T12:12:16.299Z,3.55
2023-03-07T12:14:55.553Z,3.30
2023-03-07T12:17:34.069Z,4.40
2023-03-07T12:20:25.807Z,3.72
2023-03-07T12:23:06.989Z,3.58
2023-03-07T12:25:37.513Z,3.88
2023-03-07T12:28:15.840Z,2.90
2023-03-07T12:31:05.451Z,3.40
2023-03-07T12:33:50.618Z,4.00
2023-03-07T12:36:25.165Z,4.40
2023-03-07T12:38:59.358Z,3.60
2023-03-07T12:41:46.434Z,3.80
2023-03-07T12:44:25.382Z,3.80
2023-03-07T12:47:00.944Z,3.45
2023-03-07T12:49:47.833Z,3.10
2023-03-07T12:52:35.742Z,3.17
2023-03-07T12:55:14.258Z,3.63
2023-03-07T12:57:46.575Z,3.63
2023-03-07T13:00:20.876Z,3.35
2023-03-07T13:02:58.257Z,3.67
2023-03-07T13:05:25.983Z,4.43
2023-03-07T13:07:54.083Z,4.20
2023-03-07T13:10:23.191Z,3.37
2023-03-07T13:12:52.032Z,2.55
2023-03-07T13:16:02.159Z,2.92
2023-03-07T13:18:31.904Z,2.00
2023-03-07T13:21:12.072Z,2.27
2023-03-07T13:23:39.359Z,2.20
2023-03-07T13:26:24.387Z,2.00
2023-03-07T13:28:52.162Z,2.00
2023-03-07T13:31:37.438Z,2.63
2023-03-07T13:34:41.633Z,1.93
2023-03-07T13:37:47.949Z,2.70
2023-03-07T13:40:53.067Z,1.87
2023-03-07T13:43:58.696Z,2.13
2023-03-07T13:46:54.234Z,3.00
2023-03-07T13:49:44.683Z,3.00
2023-03-07T13:52:36.459Z,3.47
2023-03-07T13:55:15.861Z,3.93
2023-03-07T13:57:43.278Z,3.30
2023-03-07T14:00:26.061Z,3.85
2023-03-07T14:02:54.342Z,3.00
2023-03-07T14:05:23.184Z,3.23
2023-03-07T14:07:51.797Z,3.00
2023-03-07T14:10:23.766Z,3.47
2023-03-07T14:13:24.272Z,3.53
2023-03-07T14:16:12.967Z,3.23
2023-03-07T14:18:53.633Z,3.77
2023-03-07T14:21:33.107Z,3.10
2023-03-07T14:24:16.428Z,3.47
2023-03-07T14:26:46.388Z,3.10
2023-03-07T14:29:17.773Z,3.43
2023-03-07T14:31:46.189Z,3.30
2023-03-07T14:34:17.803Z,3.27
2023-03-07T14:36:55.730Z,2.57
2023-03-07T14:39:24.244Z,2.80
2023-03-07T14:42:02.345Z,2.33
2023-03-07T14:45:02.025Z,2.57
2023-03-07T14:47:41.371Z,2.50
2023-03-07T14:50:16.251Z,2.80
2023-03-07T14:52:45.896Z,2.70
2023-03-07T14:55:18.973Z,2.47
2023-03-07T14:57:49.673Z,2.78
2023-03-07T15:00:25.289Z,2.10
2023-03-07T15:02:54.540Z,2.20
2023-03-07T15:05:23.524Z,2.30
2023-03-07T15:07:52.432Z,1.90
2023-03-07T15:10:22.504Z,2.43
2023-03-07T15:12:52.791Z,2.90
2023-03-07T15:15:27.590Z,2.73
2023-03-07T15:17:57.580Z,3.87
2023-03-07T15:20:27.660Z,3.77
2023-03-07T15:23:04.133Z,3.80
2023-03-07T15:25:33.206Z,3.33
2023-03-07T15:28:02.715Z,3.47
2023-03-07T15:30:32.352Z,4.07
2023-03-07T15:33:22.739Z,4.40
2023-03-07T15:36:08.871Z,4.60
2023-03-07T15:38:38.080Z,4.30
2023-03-07T15:41:26.510Z,4.20
2023-03-07T15:44:15.556Z,4.47
2023-03-07T15:46:45.590Z,4.67
2023-03-07T15:49:20.799Z,4.00
2023-03-07T15:51:52.174Z,4.90
2023-03-07T15:54:32.348Z,5.13
2023-03-07T15:57:02.192Z,4.40
2023-03-07T15:59:33.481Z,4.90
2023-03-07T16:02:38.450Z,5.57
2023-03-07T16:05:07.567Z,4.93
2023-03-07T16:07:34.514Z,5.57
2023-03-07T16:10:02.897Z,5.53
2023-03-07T16:12:39.738Z,4.47
2023-03-07T16:15:12.665Z,4.90
2023-03-07T16:17:40.001Z,4.90
2023-03-07T16:20:14.076Z,4.03
2023-03-07T16:22:43.312Z,5.50
2023-03-07T16:25:12.738Z,4.57
2023-03-07T16:27:41.000Z,4.33
2023-03-07T16:30:14.195Z,4.57
2023-03-07T16:32:41.557Z,4.97
2023-03-07T16:35:14.672Z,4.60
2023-03-07T16:37:41.613Z,5.00
2023-03-07T16:40:10.257Z,5.77
2023-03-07T16:42:41.488Z,6.30
2023-03-07T16:45:17.916Z,6.17
2023-03-07T16:47:45.072Z,5.67
2023-03-07T16:50:17.059Z,6.80
2023-03-07T16:52:44.511Z,7.17
2023-03-07T16:55:13.481Z,8.27
2023-03-07T16:57:43.694Z,9.17
2023-03-07T17:00:15.871Z,7.83
2023-03-07T17:02:43.574Z,7.23
2023-03-07T17:05:16.867Z,8.20
2023-03-07T17:07:43.973Z,8.70
2023-03-07T17:10:12.017Z,8.47
2023-03-07T17:12:39.656Z,8.73
2023-03-07T17:15:14.542Z,8.97
2023-03-07T17:17:43.118Z,8.43
2023-03-07T17:20:14.171Z,7.80
2023-03-07T17:22:41.200Z,9.40
2023-03-07T17:25:08.648Z,12.33
2023-03-07T17:27:38.919Z,17.00
2023-03-07T17:30:06.745Z,11.63
2023-03-07T17:32:35.278Z,11.33
2023-03-07T17:35:02.404Z,10.10
2023-03-07T17:37:30.063Z,11.33
2023-03-07T17:39:58.256Z,9.00
2023-03-07T17:42:25.453Z,9.63
2023-03-07T17:44:52.427Z,10.30
2023-03-07T17:47:19.466Z,10.60
2023-03-07T17:49:50.012Z,10.33
2023-03-07T17:52:16.985Z,11.03
2023-03-07T17:54:46.079Z,10.43
2023-03-07T17:57:13.226Z,10.77
2023-03-07T17:59:40.285Z,11.17
2023-03-07T18:02:07.218Z,10.47
2023-03-07T18:04:34.241Z,10.77
2023-03-07T18:07:02.749Z,11.80
2023-03-07T18:09:29.681Z,11.13
2023-03-07T18:11:56.649Z,12.23
2023-03-07T18:14:24.367Z,10.37
2023-03-07T18:16:52.036Z,10.60
2023-03-07T18:19:26.219Z,10.63
2023-03-07T18:21:55.434Z,11.40
2023-03-07T18:24:29.980Z,10.50
2023-03-07T18:27:02.557Z,13.43
2023-03-07T18:29:29.958Z,23.80
2023-03-07T18:31:57.384Z,17.20
2023-03-07T18:34:25.086Z,15.93
2023-03-07T18:36:53.160Z,12.13
2023-03-07T18:39:20.999Z,9.90
2023-03-07T18:41:50.123Z,9.60
2023-03-07T18:44:18.718Z,9.43
2023-03-07T18:46:46.203Z,8.67
2023-03-07T18:49:13.298Z,8.93
2023-03-07T18:51:40.457Z,12.87
2023-03-07T18:54:09.110Z,11.17
2023-03-07T18:56:36.257Z,11.60
2023-03-07T18:59:04.741Z,12.53
2023-03-07T19:01:33.429Z,12.33
2023-03-07T19:04:03.405Z,13.17
2023-03-07T19:06:33.526Z,13.67
2023-03-07T19:09:02.919Z,13.83
2023-03-07T19:11:31.354Z,14.70
2023-03-07T19:13:58.870Z,13.83
2023-03-07T19:16:28.319Z,15.77
2023-03-07T19:18:55.614Z,18.47
2023-03-07T19:21:24.498Z,16.17
2023-03-07T19:23:53.236Z,16.80
2023-03-07T19:26:21.742Z,16.67
2023-03-07T19:28:50.449Z,18.17
2023-03-07T19:31:19.690Z,14.97
2023-03-07T19:33:49.253Z,17.93
2023-03-07T19:36:20.308Z,17.50
2023-03-07T19:38:48.003Z,16.57
2023-03-07T19:41:16.913Z,18.07
2023-03-07T19:43:44.499Z,18.93
2023-03-07T19:46:13.501Z,19.23
2023-03-07T19:48:41.022Z,15.83
2023-03-07T19:51:14.903Z,15.90
2023-03-07T19:56:10.509Z,13.37
2023-03-07T19:58:37.953Z,14.37
2023-03-07T20:01:09.637Z,15.23
2023-03-07T20:03:37.389Z,15.33
2023-03-07T20:06:06.412Z,16.57
2023-03-07T20:08:35.449Z,15.13
2023-03-07T20:11:11.107Z,14.73
2023-03-07T20:13:38.785Z,17.93
2023-03-07T20:16:09.411Z,21.30
2023-03-07T20:18:38.401Z,19.20
2023-03-07T20:21:06.517Z,18.63
2023-03-07T20:23:35.014Z,20.37
2023-03-07T20:26:03.995Z,21.53
2023-03-07T20:28:31.625Z,19.43
2023-03-07T20:30:58.909Z,19.37
2023-03-07T20:33:26.040Z,17.63
2023-03-07T20:36:15.210Z,18.03
2023-03-07T20:38:43.669Z,17.60
2023-03-07T20:41:13.671Z,15.67
2023-03-07T20:43:40.704Z,15.60
2023-03-07T20:46:12.525Z,15.80
2023-03-07T20:48:40.873Z,15.37
2023-03-07T20:51:18.491Z,17.07
2023-03-07T20:53:47.630Z,16.97
2023-03-07T20:56:15.020Z,16.33
2023-03-07T20:58:43.072Z,16.30
2023-03-07T21:01:11.347Z,18.33
2023-03-07T21:03:38.594Z,18.17
2023-03-07T21:06:06.410Z,19.40
2023-03-07T21:08:35.731Z,17.30
2023-03-07T21:11:05.943Z,18.23
2023-03-07T21:13:36.062Z,15.93
2023-03-07T21:16:05.291Z,16.70
2023-03-07T21:18:32.502Z,16.23
2023-03-07T21:20:59.828Z,17.80
2023-03-07T21:23:27.145Z,16.70
2023-03-07T21:26:00.314Z,17.23
2023-03-07T21:28:28.716Z,17.25
2023-03-07T21:31:00.355Z,17.37
2023-03-07T21:33:27.988Z,17.57
2023-03-07T21:35:55.087Z,17.17
2023-03-07T21:38:22.229Z,17.67
2023-03-07T21:40:49.274Z,17.80
2023-03-07T21:43:16.751Z,18.27
2023-03-07T21:45:45.166Z,19.43
2023-03-07T21:48:12.207Z,20.90
2023-03-07T21:50:42.448Z,19.23
2023-03-07T21:53:09.864Z,17.73
2023-03-07T21:55:36.930Z,17.37
2023-03-07T21:58:04.408Z,16.47
2023-03-07T22:00:31.777Z,15.83
2023-03-07T22:03:00.147Z,17.27
2023-03-07T22:05:27.162Z,16.20
2023-03-07T22:07:54.200Z,16.33
2023-03-07T22:10:21.330Z,16.77
2023-03-07T22:12:48.309Z,16.97
2023-03-07T22:15:15.480Z,16.13
2023-03-07T22:17:42.568Z,16.23
2023-03-07T22:20:12.243Z,17.13
2023-03-07T22:22:39.476Z,16.23
2023-03-07T22:25:07.376Z,16.07
2023-03-07T22:27:34.427Z,16.37
2023-03-07T22:30:01.431Z,15.67
2023-03-07T22:32:28.473Z,15.87
2023-03-07T22:34:55.411Z,16.83
2023-03-07T22:37:23.773Z,15.90
2023-03-07T22:39:51.165Z,17.07
2023-03-07T22:42:18.310Z,16.40
2023-03-07T22:44:45.274Z,15.83
2023-03-07T22:47:12.202Z,17.03
2023-03-07T22:49:39.270Z,16.27
2023-03-07T22:52:06.373Z,17.13
2023-03-07T22:54:39.331Z,16.40
2023-03-07T22:57:06.423Z,16.07
2023-03-07T22:59:33.651Z,17.80
2023-03-07T23:02:00.665Z,16.07
2023-03-07T23:04:29.078Z,15.47
2023-03-07T23:06:56.160Z,16.27
2023-03-07T23:09:23.271Z,16.40
2023-03-07T23:11:51.696Z,16.53
2023-03-07T23:14:18.791Z,16.73
2023-03-07T23:16:45.818Z,16.40
2023-03-07T23:19:12.848Z,16.93
2023-03-07T23:21:39.929Z,16.47
2023-03-07T23:24:07.333Z,17.63
2023-03-07T23:26:37.101Z,19.60
2023-03-07T23:29:07.075Z,17.67
2023-03-07T23:31:36.383Z,20.03
2023-03-07T23:34:05.138Z,18.73
2023-03-07T23:36:32.939Z,18.10
2023-03-07T23:39:00.254Z,18.70
2023-03-07T23:41:28.060Z,17.37
2023-03-07T23:43:56.866Z,18.07
2023-03-07T23:46:26.616Z,17.57
2023-03-07T23:48:54.180Z,17.83
2023-03-07T23:51:21.809Z,18.67
2023-03-07T23:53:48.806Z,18.23
2023-03-07T23:56:16.183Z,18.73
2023-03-07T23:58:44.126Z,18.17
